createdAt,value
2018-07-22T00:01:03.674Z,21.20
2018-07-22T00:03:33.636Z,21.20
2018-07-22T00:06:03.519Z,21.22
2018-07-22T00:08:33.535Z,21.19
2018-07-22T00:11:03.421Z,21.13
2018-07-22T00:13:33.728Z,21.15
2018-07-22T00:16:03.920Z,21.16
2018-07-22T00:18:33.941Z,21.12
2018-07-22T00:21:03.679Z,21.12
2018-07-22T00:23:33.687Z,21.11
2018-07-22T00:26:03.593Z,21.07
2018-07-22T00:28:33.674Z,21.07
2018-07-22T00:31:03.392Z,21.04
2018-07-22T00:33:33.312Z,21.02
2018-07-22T00:36:03.022Z,21.05
2018-07-22T00:38:32.762Z,21.08
2018-07-22T00:41:02.384Z,21.04
2018-07-22T00:43:32.211Z,21.03
2018-07-22T00:46:01.839Z,21.01
2018-07-22T00:48:31.506Z,20.99
2018-07-22T00:51:01.134Z,21.02
2018-07-22T00:53:30.868Z,20.99
2018-07-22T00:56:00.627Z,20.99
2018-07-22T00:58:30.419Z,20.91
2018-07-22T01:01:00.145Z,20.97
2018-07-22T01:03:29.791Z,20.90
2018-07-22T01:05:59.593Z,20.95
2018-07-22T01:08:30.129Z,20.89
2018-07-22T01:11:00.041Z,20.86
2018-07-22T01:13:29.769Z,20.90
2018-07-22T01:15:59.406Z,20.91
2018-07-22T01:18:29.078Z,20.87
2018-07-22T01:20:58.979Z,20.83
2018-07-22T01:23:28.677Z,20.81
2018-07-22T01:25:58.361Z,20.84
2018-07-22T01:28:28.047Z,20.78
2018-07-22T01:30:57.661Z,20.84
2018-07-22T01:33:27.311Z,20.86
2018-07-22T01:35:57.536Z,20.81
2018-07-22T01:38:27.729Z,20.77
2018-07-22T01:40:57.528Z,20.81
2018-07-22T01:43:27.883Z,20.79
2018-07-22T01:45:58.026Z,20.81
2018-07-22T01:48:27.675Z,20.80
2018-07-22T01:50:57.453Z,20.73
2018-07-22T01:53:28.165Z,20.74
2018-07-22T01:55:57.843Z,20.74
2018-07-22T01:58:27.888Z,20.77
2018-07-22T02:00:57.761Z,20.76
2018-07-22T02:03:27.397Z,20.80
2018-07-22T02:05:57.853Z,20.79
2018-07-22T02:08:27.508Z,20.78
2018-07-22T02:10:57.328Z,20.74
2018-07-22T02:13:27.686Z,20.76
2018-07-22T02:15:58.020Z,20.82
2018-07-22T02:18:27.681Z,20.85
2018-07-22T02:20:57.879Z,20.80
2018-07-22T02:23:28.512Z,20.77
2018-07-22T02:25:58.760Z,20.82
2018-07-22T02:28:28.466Z,20.79
2018-07-22T02:30:58.224Z,20.83
2018-07-22T02:33:27.883Z,20.79
2018-07-22T02:35:57.728Z,20.85
2018-07-22T02:38:27.570Z,20.82
2018-07-22T02:40:57.602Z,20.81
2018-07-22T02:43:27.219Z,20.79
2018-07-22T02:45:56.918Z,20.80
2018-07-22T02:48:26.764Z,20.82
2018-07-22T02:50:57.564Z,20.77
2018-07-22T02:53:27.223Z,20.73
2018-07-22T02:55:56.992Z,20.69
2018-07-22T02:58:26.997Z,20.71
2018-07-22T03:00:57.435Z,20.63
2018-07-22T03:03:27.151Z,20.61
2018-07-22T03:05:56.751Z,20.52
2018-07-22T03:08:27.332Z,20.47
2018-07-22T03:10:57.214Z,20.37
2018-07-22T03:13:26.881Z,20.30
2018-07-22T03:15:56.731Z,20.34
2018-07-22T03:18:27.133Z,20.30
2018-07-22T03:20:57.056Z,20.26
2018-07-22T03:23:26.888Z,20.24
2018-07-22T03:25:56.683Z,20.22
2018-07-22T03:28:27.113Z,20.25
2018-07-22T03:30:56.847Z,20.23
2018-07-22T03:33:26.722Z,20.24
2018-07-22T03:35:57.141Z,20.19
2018-07-22T03:38:26.899Z,20.18
2018-07-22T03:40:56.853Z,20.16
2018-07-22T03:43:26.586Z,20.10
2018-07-22T03:45:57.359Z,20.00
2018-07-22T03:48:27.180Z,19.99
2018-07-22T03:50:56.918Z,20.04
2018-07-22T03:53:26.784Z,20.02
2018-07-22T03:55:56.567Z,20.07
2018-07-22T03:58:27.143Z,19.95
2018-07-22T04:00:57.007Z,19.92
2018-07-22T04:03:26.794Z,19.90
2018-07-22T04:06:03.965Z,19.82
2018-07-22T04:08:33.690Z,19.85
2018-07-22T04:11:03.395Z,19.70
2018-07-22T04:13:33.102Z,19.72
2018-07-22T04:16:03.434Z,19.56
2018-07-22T04:18:33.604Z,19.68
2018-07-22T04:21:03.289Z,19.66
2018-07-22T04:23:32.980Z,19.50
2018-07-22T04:26:02.745Z,19.57
2018-07-22T04:28:32.450Z,19.46
2018-07-22T04:31:02.909Z,19.53
2018-07-22T04:33:32.539Z,19.60
2018-07-22T04:36:02.805Z,19.45
2018-07-22T04:38:33.036Z,19.47
2018-07-22T04:41:02.765Z,19.37
2018-07-22T04:43:32.579Z,19.44
2018-07-22T04:46:02.578Z,19.36
2018-07-22T04:48:32.389Z,19.35
2018-07-22T04:51:02.256Z,19.46
2018-07-22T04:53:33.321Z,19.40
2018-07-22T04:56:03.561Z,19.21
2018-07-22T04:58:33.936Z,19.33
2018-07-22T05:01:03.881Z,19.53
2018-07-22T05:03:34.360Z,19.25
2018-07-22T05:06:05.377Z,19.30
2018-07-22T05:08:35.165Z,19.20
2018-07-22T05:11:04.974Z,19.03
2018-07-22T05:13:34.947Z,19.35
2018-07-22T05:16:05.203Z,19.23
2018-07-22T05:18:35.256Z,19.21
2018-07-22T05:21:05.407Z,19.18
2018-07-22T05:23:35.835Z,19.43
2018-07-22T05:26:06.109Z,19.37
2018-07-22T05:28:35.800Z,19.60
2018-07-22T05:31:05.493Z,19.44
2018-07-22T05:33:35.534Z,19.44
2018-07-22T05:36:05.738Z,19.24
2018-07-22T05:38:35.476Z,19.02
2018-07-22T05:41:05.345Z,19.09
2018-07-22T05:43:35.319Z,19.10
2018-07-22T05:46:05.203Z,19.44
2018-07-22T05:48:36.632Z,19.33
2018-07-22T05:51:06.455Z,19.37
2018-07-22T05:53:36.379Z,19.04
2018-07-22T05:56:07.434Z,19.20
2018-07-22T05:58:37.581Z,19.21
2018-07-22T06:01:07.669Z,19.24
2018-07-22T06:03:37.765Z,19.51
2018-07-22T06:06:08.034Z,19.35
2018-07-22T06:08:38.119Z,19.60
2018-07-22T06:11:08.157Z,19.83
2018-07-22T06:13:37.994Z,21.84
2018-07-22T06:16:08.251Z,22.27
2018-07-22T06:18:38.106Z,22.17
2018-07-22T06:21:08.076Z,23.02
2018-07-22T06:23:37.839Z,22.84
2018-07-22T06:26:07.763Z,24.51
2018-07-22T06:28:37.555Z,24.40
2018-07-22T06:31:07.568Z,24.75
2018-07-22T06:33:37.359Z,23.15
2018-07-22T06:36:07.765Z,25.98
2018-07-22T06:38:37.776Z,23.85
2018-07-22T06:41:07.693Z,23.46
2018-07-22T06:43:37.401Z,26.12
2018-07-22T06:46:07.517Z,25.35
2018-07-22T06:48:37.358Z,25.93
2018-07-22T06:51:07.826Z,25.53
2018-07-22T06:53:37.671Z,27.72
2018-07-22T06:56:07.560Z,26.98
2018-07-22T06:58:37.390Z,25.58
2018-07-22T07:01:07.194Z,26.21
2018-07-22T07:03:37.000Z,25.18
2018-07-22T07:06:06.954Z,25.89
2018-07-22T07:08:37.101Z,26.77
2018-07-22T07:11:07.616Z,26.93
2018-07-22T07:13:37.499Z,27.21
2018-07-22T07:16:07.544Z,27.23
2018-07-22T07:18:37.912Z,24.45
2018-07-22T07:21:08.464Z,26.24
2018-07-22T07:23:39.487Z,26.99
2018-07-22T07:26:09.328Z,26.09
2018-07-22T07:28:39.085Z,27.22
2018-07-22T07:31:09.896Z,27.93
2018-07-22T07:33:40.308Z,24.94
2018-07-22T07:36:10.009Z,27.17
2018-07-22T07:38:39.650Z,26.25
2018-07-22T07:41:09.461Z,26.15
2018-07-22T07:43:39.212Z,24.85
2018-07-22T07:46:09.264Z,25.82
2018-07-22T07:48:38.974Z,26.47
2018-07-22T07:51:08.786Z,25.00
2018-07-22T07:53:38.875Z,25.56
2018-07-22T07:56:08.694Z,25.15
2018-07-22T07:58:38.459Z,25.62
2018-07-22T08:01:08.184Z,25.67
2018-07-22T08:03:37.777Z,25.92
2018-07-22T08:06:07.701Z,27.34
2018-07-22T08:08:38.096Z,26.97
2018-07-22T08:11:07.895Z,25.52
2018-07-22T08:13:37.530Z,24.74
2018-07-22T08:16:07.684Z,24.56
2018-07-22T08:18:37.426Z,26.62
2018-07-22T08:21:09.423Z,25.51
2018-07-22T08:23:39.144Z,26.33
2018-07-22T08:26:08.851Z,25.36
2018-07-22T08:29:29.406Z,25.33
2018-07-22T08:31:59.294Z,24.92
2018-07-22T08:34:29.133Z,24.80
2018-07-22T08:36:59.170Z,24.54
2018-07-22T08:39:29.829Z,25.12
2018-07-22T08:41:59.991Z,25.33
2018-07-22T08:44:30.084Z,24.62
2018-07-22T08:46:59.739Z,26.41
2018-07-22T08:49:29.428Z,25.37
2018-07-22T08:51:59.091Z,25.48
2018-07-22T08:54:28.791Z,25.89
2018-07-22T08:56:58.475Z,26.58
2018-07-22T08:59:28.234Z,25.83
2018-07-22T09:01:57.896Z,27.51
2018-07-22T09:04:27.552Z,25.45
2018-07-22T09:06:57.299Z,26.11
2018-07-22T09:09:27.481Z,26.23
2018-07-22T09:11:57.804Z,25.72
2018-07-22T09:14:27.571Z,23.99
2018-07-22T09:16:57.153Z,24.47
2018-07-22T09:19:26.819Z,25.62
2018-07-22T09:21:56.396Z,25.89
2018-07-22T09:24:26.153Z,25.63
2018-07-22T09:26:55.815Z,25.75
2018-07-22T09:29:25.455Z,25.50
2018-07-22T09:31:55.159Z,26.00
2018-07-22T09:34:25.008Z,28.05
2018-07-22T09:36:54.706Z,26.33
2018-07-22T09:39:24.361Z,27.19
2018-07-22T09:41:54.036Z,26.18
2018-07-22T09:44:23.636Z,27.09
2018-07-22T09:46:53.405Z,27.30
2018-07-22T09:49:22.771Z,26.51
2018-07-22T09:51:52.529Z,26.03
2018-07-22T09:54:22.465Z,25.98
2018-07-22T09:56:52.100Z,26.84
2018-07-22T09:59:22.452Z,26.50
2018-07-22T10:01:58.813Z,26.20
2018-07-22T10:04:28.607Z,25.89
2018-07-22T10:06:58.401Z,26.67
2018-07-22T10:09:28.161Z,25.92
2018-07-22T10:11:57.995Z,26.21
2018-07-22T10:14:27.345Z,26.91
2018-07-22T10:16:56.993Z,28.38
2018-07-22T10:19:26.335Z,26.33
2018-07-22T10:21:56.007Z,25.84
2018-07-22T10:24:25.739Z,26.64
2018-07-22T10:26:55.963Z,26.84
2018-07-22T10:29:25.880Z,27.09
2018-07-22T10:31:55.733Z,27.44
2018-07-22T10:34:25.738Z,27.43
2018-07-22T10:36:55.753Z,27.29
2018-07-22T10:39:25.617Z,26.98
2018-07-22T10:41:56.158Z,26.51
2018-07-22T10:44:26.148Z,26.70
2018-07-22T10:46:55.899Z,26.68
2018-07-22T10:49:26.003Z,26.60
2018-07-22T10:51:55.674Z,26.62
2018-07-22T10:54:25.518Z,27.37
2018-07-22T10:56:55.552Z,27.26
2018-07-22T10:59:25.823Z,27.69
2018-07-22T11:01:55.681Z,27.31
2018-07-22T11:04:25.803Z,27.10
2018-07-22T11:06:55.469Z,26.66
2018-07-22T11:09:26.050Z,26.41
2018-07-22T11:11:56.076Z,26.87
2018-07-22T11:14:26.113Z,26.29
2018-07-22T11:16:55.787Z,26.72
2018-07-22T11:19:25.708Z,26.61
2018-07-22T11:21:55.324Z,26.74
2018-07-22T11:24:25.833Z,26.57
2018-07-22T11:26:55.627Z,26.43
2018-07-22T11:29:25.316Z,26.90
2018-07-22T11:31:55.038Z,27.77
2018-07-22T11:34:25.376Z,26.88
2018-07-22T11:36:55.806Z,27.01
2018-07-22T11:39:25.616Z,27.16
2018-07-22T11:41:55.920Z,26.57
2018-07-22T11:44:26.336Z,26.77
2018-07-22T11:46:56.073Z,26.49
2018-07-22T11:49:25.692Z,27.05
2018-07-22T11:51:55.413Z,27.21
2018-07-22T11:54:25.113Z,27.31
2018-07-22T11:56:55.094Z,26.86
2018-07-22T11:59:24.772Z,26.68
2018-07-22T12:01:54.858Z,26.95
2018-07-22T12:04:25.213Z,26.95
2018-07-22T12:06:55.141Z,26.65
2018-07-22T12:09:24.764Z,26.92
2018-07-22T12:11:54.527Z,26.44
2018-07-22T12:14:24.167Z,26.89
2018-07-22T12:16:53.895Z,26.67
2018-07-22T12:19:23.602Z,27.16
2018-07-22T12:21:53.291Z,27.08
2018-07-22T12:24:23.444Z,26.83
2018-07-22T12:26:53.773Z,26.96
2018-07-22T12:29:23.436Z,27.64
2018-07-22T12:31:53.160Z,27.09
2018-07-22T12:34:22.966Z,26.97
2018-07-22T12:36:52.856Z,27.25
2018-07-22T12:39:23.105Z,27.44
2018-07-22T12:41:52.903Z,27.33
2018-07-22T12:44:24.047Z,26.93
2018-07-22T12:46:54.289Z,27.43
2018-07-22T12:49:24.699Z,27.06
2018-07-22T12:51:54.380Z,27.05
2018-07-22T12:54:24.388Z,27.17
2018-07-22T12:56:54.203Z,27.10
2018-07-22T12:59:24.143Z,27.23
2018-07-22T13:01:54.588Z,27.00
2018-07-22T13:04:24.485Z,27.04
2018-07-22T13:06:58.028Z,26.99
2018-07-22T13:09:27.824Z,27.57
2018-07-22T13:11:57.451Z,27.40
2018-07-22T13:14:27.080Z,27.34
2018-07-22T13:16:56.945Z,27.77
2018-07-22T13:19:26.816Z,27.57
2018-07-22T13:21:56.541Z,27.12
2018-07-22T13:24:28.367Z,27.64
2018-07-22T13:26:58.265Z,27.70
2018-07-22T13:29:28.122Z,27.49
2018-07-22T13:31:58.789Z,27.49
2018-07-22T13:34:28.422Z,28.07
2018-07-22T13:36:58.084Z,27.64
2018-07-22T13:39:27.781Z,28.50
2018-07-22T13:41:57.426Z,28.84
2018-07-22T13:44:27.715Z,28.23
2018-07-22T13:46:57.342Z,28.09
2018-07-22T13:49:27.302Z,28.89
2018-07-22T13:51:57.063Z,28.28
2018-07-22T13:54:33.304Z,28.17
2018-07-22T13:57:03.647Z,28.90
2018-07-22T13:59:33.776Z,28.35
2018-07-22T14:02:03.577Z,27.80
2018-07-22T14:04:36.253Z,27.93
2018-07-22T14:07:06.015Z,27.88
2018-07-22T14:09:35.750Z,28.13
2018-07-22T14:12:05.725Z,27.93
2018-07-22T14:14:35.267Z,28.83
2018-07-22T14:17:04.957Z,28.81
2018-07-22T14:19:34.602Z,29.26
2018-07-22T14:22:04.259Z,28.77
2018-07-22T14:24:34.054Z,28.19
2018-07-22T14:27:03.960Z,27.98
2018-07-22T14:29:33.602Z,28.00
2018-07-22T14:32:03.375Z,27.90
2018-07-22T14:34:32.997Z,27.61
2018-07-22T14:37:02.821Z,27.37
2018-07-22T14:39:32.537Z,27.14
2018-07-22T14:42:02.257Z,27.30
2018-07-22T14:44:31.931Z,27.34
2018-07-22T14:47:01.786Z,27.05
2018-07-22T14:49:31.361Z,27.13
2018-07-22T14:52:01.328Z,27.37
2018-07-22T14:54:31.802Z,27.18
2018-07-22T14:57:01.530Z,27.36
2018-07-22T14:59:31.868Z,27.13
2018-07-22T15:02:01.741Z,27.52
2018-07-22T15:04:32.363Z,27.50
2018-07-22T15:07:02.065Z,27.61
2018-07-22T15:09:31.916Z,27.32
2018-07-22T15:12:01.786Z,27.27
2018-07-22T15:14:31.530Z,27.44
2018-07-22T15:17:01.311Z,27.18
2018-07-22T15:19:31.038Z,27.27
2018-07-22T15:22:00.855Z,27.33
2018-07-22T15:24:31.457Z,27.51
2018-07-22T15:27:01.146Z,27.29
2018-07-22T15:29:31.027Z,27.27
2018-07-22T15:32:00.871Z,27.46
2018-07-22T15:34:30.599Z,27.55
2018-07-22T15:37:00.453Z,27.46
2018-07-22T15:39:30.199Z,27.26
2018-07-22T15:41:59.981Z,27.36
2018-07-22T15:44:29.924Z,27.75
2018-07-22T15:46:59.548Z,27.30
2018-07-22T15:49:29.264Z,27.46
2018-07-22T15:51:58.976Z,27.58
2018-07-22T15:54:28.646Z,27.75
2018-07-22T15:56:58.283Z,27.81
2018-07-22T15:59:27.952Z,27.69
2018-07-22T16:02:00.118Z,27.79
2018-07-22T16:04:29.916Z,27.56
2018-07-22T16:06:59.651Z,27.87
2018-07-22T16:09:29.356Z,27.59
2018-07-22T16:11:59.720Z,27.45
2018-07-22T16:14:29.606Z,27.25
2018-07-22T16:16:59.282Z,27.36
2018-07-22T16:19:29.596Z,27.43
2018-07-22T16:21:59.218Z,27.08
2018-07-22T16:24:28.974Z,27.12
2018-07-22T16:26:58.759Z,27.14
2018-07-22T16:29:28.407Z,27.08
2018-07-22T16:31:58.225Z,26.96
2018-07-22T16:34:28.895Z,27.08
2018-07-22T16:36:58.624Z,26.91
2018-07-22T16:39:28.364Z,26.97
2018-07-22T16:41:57.995Z,27.19
2018-07-22T16:44:27.571Z,27.26
2018-07-22T16:46:57.799Z,26.93
2018-07-22T16:49:27.608Z,27.06
2018-07-22T16:51:57.804Z,27.01
2018-07-22T16:54:27.445Z,26.94
2018-07-22T16:56:57.227Z,26.96
2018-07-22T16:59:26.869Z,26.74
2018-07-22T17:01:56.610Z,26.62
2018-07-22T17:04:25.983Z,26.54
2018-07-22T17:06:55.543Z,26.44
2018-07-22T17:09:25.299Z,26.33
2018-07-22T17:11:55.461Z,26.36
2018-07-22T17:14:24.715Z,26.27
2018-07-22T17:16:54.642Z,26.44
2018-07-22T17:19:24.341Z,26.42
2018-07-22T17:21:54.404Z,26.36
2018-07-22T17:24:24.649Z,26.34
2018-07-22T17:26:54.692Z,26.27
2018-07-22T17:29:24.781Z,26.32
2018-07-22T17:31:54.830Z,26.32
2018-07-22T17:34:24.469Z,26.35
2018-07-22T17:36:54.446Z,26.34
2018-07-22T17:39:24.180Z,26.25
2018-07-22T17:41:54.057Z,26.43
2018-07-22T17:44:23.782Z,26.42
2018-07-22T17:46:53.854Z,26.28
2018-07-22T17:49:23.550Z,26.27
2018-07-22T17:51:53.998Z,26.37
2018-07-22T17:54:23.755Z,26.39
2018-07-22T17:56:53.516Z,26.57
2018-07-22T17:59:23.283Z,26.32
2018-07-22T18:01:57.971Z,26.18
2018-07-22T18:04:30.562Z,26.24
2018-07-22T18:07:00.406Z,26.14
2018-07-22T18:09:30.019Z,26.11
2018-07-22T18:11:59.749Z,26.06
2018-07-22T18:14:29.397Z,26.04
2018-07-22T18:16:59.048Z,25.98
2018-07-22T18:19:28.690Z,25.93
2018-07-22T18:21:59.092Z,25.92
2018-07-22T18:24:28.747Z,25.75
2018-07-22T18:26:58.726Z,25.75
2018-07-22T18:29:28.359Z,25.78
2018-07-22T18:31:58.281Z,25.69
2018-07-22T18:34:28.061Z,25.63
2018-07-22T18:36:58.172Z,25.60
2018-07-22T18:39:28.194Z,25.52
2018-07-22T18:41:58.188Z,25.46
2018-07-22T18:44:27.860Z,25.39
2018-07-22T18:46:58.074Z,25.40
2018-07-22T18:49:28.131Z,25.37
2018-07-22T18:51:58.245Z,25.26
2018-07-22T18:54:28.173Z,25.24
2018-07-22T18:56:58.370Z,25.20
2018-07-22T18:59:28.305Z,25.13
2018-07-22T19:01:58.638Z,25.05
2018-07-22T19:04:28.674Z,25.00
2018-07-22T19:06:59.068Z,24.96
2018-07-22T19:09:29.241Z,24.91
2018-07-22T19:11:59.592Z,24.78
2018-07-22T19:14:29.739Z,24.74
2018-07-22T19:17:00.133Z,24.71
2018-07-22T19:19:30.345Z,24.58
2018-07-22T19:22:00.800Z,24.68
2018-07-22T19:24:30.771Z,24.69
2018-07-22T19:27:02.622Z,24.62
2018-07-22T19:29:32.716Z,24.42
2018-07-22T19:32:03.101Z,24.24
2018-07-22T19:34:33.727Z,24.34
2018-07-22T19:37:03.661Z,24.37
2018-07-22T19:39:34.535Z,24.45
2018-07-22T19:42:04.895Z,24.23
2018-07-22T19:44:34.901Z,24.14
2018-07-22T19:47:04.878Z,24.06
2018-07-22T19:49:34.916Z,24.02
2018-07-22T19:52:05.661Z,24.16
2018-07-22T19:54:35.720Z,23.90
2018-07-22T19:57:05.678Z,23.99
2018-07-22T19:59:35.710Z,24.08
2018-07-22T20:02:05.726Z,23.81
2018-07-22T20:04:35.692Z,23.76
2018-07-22T20:07:05.825Z,23.87
2018-07-22T20:09:35.928Z,23.82
2018-07-22T20:12:06.061Z,23.55
2018-07-22T20:14:36.184Z,23.46
2018-07-22T20:17:06.703Z,23.37
2018-07-22T20:19:37.462Z,23.49
2018-07-22T20:22:07.397Z,23.39
2018-07-22T20:24:37.433Z,23.45
2018-07-22T20:27:06.883Z,23.50
2018-07-22T20:29:36.761Z,23.53
2018-07-22T20:32:07.030Z,23.50
2018-07-22T20:34:37.550Z,23.44
2018-07-22T20:37:08.039Z,23.43
2018-07-22T20:39:37.881Z,23.40
2018-07-22T20:42:07.902Z,23.31
2018-07-22T20:44:37.840Z,23.32
2018-07-22T20:47:08.816Z,23.20
2018-07-22T20:49:38.217Z,23.13
2018-07-22T20:52:08.301Z,23.26
2018-07-22T20:54:37.994Z,23.17
2018-07-22T20:57:08.105Z,23.09
2018-07-22T20:59:38.473Z,23.10
2018-07-22T21:02:08.763Z,23.02
2018-07-22T21:04:38.857Z,23.01
2018-07-22T21:07:08.829Z,22.90
2018-07-22T21:09:38.498Z,22.82
2018-07-22T21:12:51.261Z,22.84
2018-07-22T21:15:20.911Z,22.76
2018-07-22T21:17:51.416Z,22.65
2018-07-22T21:20:22.040Z,22.54
2018-07-22T21:22:54.678Z,22.47
2018-07-22T21:25:24.339Z,22.38
2018-07-22T21:27:54.178Z,22.44
2018-07-22T21:30:24.327Z,22.42
2018-07-22T21:32:54.130Z,22.40
2018-07-22T21:35:24.221Z,22.49
2018-07-22T21:37:54.439Z,22.56
2018-07-22T21:40:24.765Z,22.53
2018-07-22T21:42:54.519Z,22.63
2018-07-22T21:45:23.810Z,22.54
2018-07-22T21:47:53.541Z,22.48
2018-07-22T21:50:23.281Z,22.41
2018-07-22T21:52:53.583Z,22.37
2018-07-22T21:55:23.268Z,22.34
2018-07-22T21:57:53.082Z,22.26
2018-07-22T22:00:30.193Z,22.41
2018-07-22T22:03:01.604Z,22.34
2018-07-22T22:05:31.467Z,22.27
2018-07-22T22:08:01.226Z,22.19
2018-07-22T22:10:30.952Z,22.16
2018-07-22T22:13:00.601Z,22.10
2018-07-22T22:15:32.085Z,22.05
2018-07-22T22:18:03.805Z,22.02
2018-07-22T22:20:33.701Z,22.00
2018-07-22T22:23:03.648Z,21.94
2018-07-22T22:25:33.347Z,21.88
2018-07-22T22:28:03.081Z,21.87
2018-07-22T22:30:33.814Z,21.87
2018-07-22T22:33:03.641Z,21.80
2018-07-22T22:35:39.516Z,21.88
2018-07-22T22:38:09.746Z,21.89
2018-07-22T22:40:39.996Z,21.76
2018-07-22T22:43:09.666Z,21.81
2018-07-22T22:45:39.298Z,21.72
2018-07-22T22:48:09.011Z,21.79
2018-07-22T22:50:39.024Z,21.73
2018-07-22T22:53:08.528Z,21.76
2018-07-22T22:55:38.293Z,21.71
2018-07-22T22:58:24.917Z,21.60
2018-07-22T23:00:54.978Z,21.62
2018-07-22T23:03:25.018Z,21.58
2018-07-22T23:05:56.028Z,21.55
2018-07-22T23:08:25.774Z,21.49
2018-07-22T23:10:55.634Z,21.42
2018-07-22T23:13:25.373Z,21.34
2018-07-22T23:15:55.424Z,21.26
2018-07-22T23:18:25.072Z,21.17
2018-07-22T23:20:54.737Z,21.14
2018-07-22T23:23:24.436Z,21.10
2018-07-22T23:25:54.386Z,21.30
2018-07-22T23:28:24.119Z,21.18
2018-07-22T23:30:53.790Z,21.12
2018-07-22T23:33:23.624Z,21.26
2018-07-22T23:35:53.348Z,21.13
2018-07-22T23:38:22.908Z,21.05
2018-07-22T23:40:52.517Z,21.12
2018-07-22T23:43:22.384Z,20.95
2018-07-22T23:45:52.031Z,20.86
2018-07-22T23:48:22.333Z,20.95
2018-07-22T23:50:51.983Z,20.93
2018-07-22T23:53:22.059Z,20.85
2018-07-22T23:55:51.455Z,20.77
2018-07-22T23:58:22.189Z,20.57
